ADDS METAR Data

Data at: 0500 UTC 20 Apr 2018

METAR for:KBID (Block Island Arpt, RI, US)
Text:KBID 200456Z AUTO 31011G19KT 10SM OVC075 03/M01 A2991 RMK AO2 SLP133 T00331011
Temperature: 3.3°C ( 38°F)
Dewpoint: -1.1°C ( 30°F) [RH = 73%]
Pressure (altimeter):29.91 inches Hg (1013.0 mb) [Sea level pressure: 1013.3 mb]
Winds:from the NW (310 degrees) at 13 MPH (11 knots; 5.7 m/s) gusting to 22 MPH (19 knots; 9.8 m/s)
Visibility:10 or more sm (16+ km)
Ceiling:7500 feet AGL
Clouds: overcast cloud deck at 7500 feet AGL
QC Flag:automated observation with no human augmentation